Terminal Aerodrome Forecast
Issued by NWS Northern Indiana

Home | Current Version | Previous Version | Text Only | Print | Product List | Glossary On
Versions: 1 2 3 4 5 6 7 8 9 10 11 12 13
000
FTUS43 KIWX 072337
TAFFWA
TAF
KFWA 072337Z 0800/0824 34012KT P6SM BKN030
     FM080200 02005KT P6SM SCT035 BKN250
     FM081400 07010KT P6SM SCT050 BKN100=

USA.gov is the U.S. government's official web portal to all federal, state and local government web resources and services.